Time;durP1;ratioP1;P1;durP2;ratioP2;P2;SDS_P1;SDS_P2;PMS_P1;PMS_P2;Temp;Humidity;BMP_temperature;BMP_pressure;BME280_temperature;BME280_humidity;BME280_pressure;Samples;Min_cycle;Max_cycle;Signal;HPM_P1;HPM_P2
2022/01/14 00:01:49;;;;;;;;;;;;;;;;;;6155731;23;19911;-73
2022/01/14 00:04:15;;;;;;;;;;;;;;;;;;6155927;23;19928;-73
2022/01/14 00:06:41;;;;;;;;;;;;;;;;;;6155456;23;19917;-73
2022/01/14 00:09:08;;;;;;;;;;;;;;;;;;6129809;23;19975;-73
2022/01/14 00:11:34;;;;;;;;;;;;;;;;;;6155519;23;19908;-73
2022/01/14 00:16:29;;;;;;;;;;;;;;;;;;6155528;23;20096;-73
2022/01/14 00:18:57;;;;;;;;;;;;;;;;;;6155712;23;19905;-73
2022/01/14 00:21:23;;;;;;;;;;;;;;;;;;6155917;23;19908;-73
2022/01/14 00:23:52;;;;;;;;;;;;;;;;;;6129576;23;19912;-73
2022/01/14 00:31:56;;;;;;;;;;;;;;;;;;6155779;23;19912;-72
2022/01/14 00:34:22;;;;;;;;;;;;;;;;;;6155838;23;19943;-73
2022/01/14 00:36:48;;;;;;;;;;;;;;;;;;6155646;23;20275;-72
2022/01/14 00:39:14;;;;;;;;;;;;;;;;;;6129850;23;19956;-72
2022/01/14 00:41:40;;;;;;;;;;;;;;;;;;6155746;23;19904;-72
2022/01/14 00:44:10;;;;;;;;;;;;;;;;;;6155275;23;19905;-73
2022/01/14 00:46:36;;;;;;;;;;;;;;;;;;6155311;23;19933;-73
2022/01/14 00:49:01;;;;;;;;;;;;;;;;;;6155946;23;19981;-73
2022/01/14 00:51:28;;;;;;;;;;;;;;;;;;6155724;23;20358;-73
2022/01/14 00:53:53;;;;;;;;;;;;;;;;;;6155563;23;19973;-73
2022/01/14 00:59:14;;;;;;;;;;;;;;;;;;6065031;23;20260;-72
2022/01/14 01:01:40;;;;;;;;;;;;;;;;;;6065180;23;19909;-72
2022/01/14 01:04:06;;;;;;;;;;;;;;;;;;6065797;23;20382;-72
2022/01/14 01:06:32;;;;;;;;;;;;;;;;;;6040375;23;20003;-72
2022/01/14 01:08:58;;;;;;;;;;;;;;;;;;6065375;23;20310;-72
2022/01/14 01:11:29;;;;;;;;;;;;;;;;;;6065566;23;20012;-72
2022/01/14 01:14:04;;;;;;;;;;;;;;;;;;6064968;23;19933;-73
2022/01/14 01:16:30;;;;;;;;;;;;;;;;;;6064661;23;19917;-72
2022/01/14 01:18:56;;;;;;;;;;;;;;;;;;6065517;23;19913;-72
2022/01/14 01:21:22;;;;;;;;;;;;;;;;;;6065322;23;19910;-72
2022/01/14 01:23:48;;;;;;;;;;;;;;;;;;6065263;23;19945;-72
2022/01/14 01:26:21;;;;;;;;;;;;;;;;;;6065021;23;20340;-73
2022/01/14 01:29:30;;;;;;;;;;;;;;;;;;6065152;23;19906;-74
2022/01/14 01:31:51;;;;;;;;;;;;;;;;;;6065038;23;19906;-72
2022/01/14 01:34:17;;;;;;;;;;;;;;;;;;6065082;23;20379;-72
2022/01/14 01:36:43;;;;;;;;;;;;;;;;;;6130314;23;19942;-72
2022/01/14 01:39:09;;;;;;;;;;;;;;;;;;6129080;23;19905;-72
2022/01/14 01:41:35;;;;;;;;;;;;;;;;;;6155295;23;20343;-75
2022/01/14 01:44:00;;;;;;;;;;;;;;;;;;6155407;23;19905;-72
2022/01/14 01:46:26;;;;;;;;;;;;;;;;;;6155120;23;19912;-72
2022/01/14 01:48:52;;;;;;;;;;;;;;;;;;6154933;23;20315;-72
2022/01/14 01:51:18;;;;;;;;;;;;;;;;;;6154892;23;19904;-72
2022/01/14 01:53:44;;;;;;;;;;;;;;;;;;6155184;23;19904;-73
2022/01/14 01:56:10;;;;;;;;;;;;;;;;;;6155546;23;19908;-72
2022/01/14 01:58:36;;;;;;;;;;;;;;;;;;6154431;23;19904;-73
2022/01/14 02:01:02;;;;;;;;;;;;;;;;;;6155180;23;19904;-72
2022/01/14 02:03:28;;;;;;;;;;;;;;;;;;6155375;23;19936;-72
2022/01/14 02:05:54;;;;;;;;;;;;;;;;;;6155044;23;19962;-73
2022/01/14 02:08:20;;;;;;;;;;;;;;;;;;6154822;23;19995;-73
2022/01/14 02:10:46;;;;;;;;;;;;;;;;;;6155170;23;19987;-73
2022/01/14 02:13:12;;;;;;;;;;;;;;;;;;6154892;23;20329;-73
2022/01/14 02:18:31;;;;;;;;;;;;;;;;;;6155004;23;19951;-73
2022/01/14 02:23:46;;;;;;;;;;;;;;;;;;6155034;23;20329;-73
2022/01/14 02:26:12;;;;;;;;;;;;;;;;;;6154837;23;19975;-72
2022/01/14 02:28:38;;;;;;;;;;;;;;;;;;6154924;23;19916;-74
2022/01/14 02:31:04;;;;;;;;;;;;;;;;;;6154904;23;19912;-73
2022/01/14 02:33:30;;;;;;;;;;;;;;;;;;6155212;23;19908;-72
2022/01/14 02:35:56;;;;;;;;;;;;;;;;;;6154760;23;19960;-73
2022/01/14 02:38:22;;;;;;;;;;;;;;;;;;6128873;23;19912;-73
2022/01/14 02:40:48;;;;;;;;;;;;;;;;;;6154416;23;19912;-73
2022/01/14 02:43:15;;;;;;;;;;;;;;;;;;6128119;23;19905;-75
2022/01/14 02:45:41;;;;;;;;;;;;;;;;;;6154806;23;19905;-75
2022/01/14 02:48:07;;;;;;;;;;;;;;;;;;6154562;23;19928;-72
2022/01/14 02:50:54;;;;;;;;;;;;;;;;;;6155417;23;20339;-73
2022/01/14 02:53:42;;;;;;;;;;;;;;;;;;6156847;23;19916;-73
2022/01/14 02:56:08;;;;;;;;;;;;;;;;;;6156257;23;19975;-75
2022/01/14 02:58:34;;;;;;;;;;;;;;;;;;6130230;23;20323;-73
2022/01/14 03:01:00;;;;;;;;;;;;;;;;;;6156858;23;19905;-73
2022/01/14 03:03:25;;;;;;;;;;;;;;;;;;6156870;23;19912;-75
2022/01/14 03:05:51;;;;;;;;;;;;;;;;;;6155907;23;19946;-75
2022/01/14 03:08:17;;;;;;;;;;;;;;;;;;6130567;23;19909;-73
2022/01/14 03:10:43;;;;;;;;;;;;;;;;;;6155625;23;20362;-73
2022/01/14 03:13:09;;;;;;;;;;;;;;;;;;6156628;23;20227;-73
2022/01/14 03:15:35;;;;;;;;;;;;;;;;;;6156808;23;19915;-73
2022/01/14 03:18:01;;;;;;;;;;;;;;;;;;6156154;23;19905;-73
2022/01/14 03:23:07;;;;;;;;;;;;;;;;;;6156692;23;19904;-73
2022/01/14 03:25:51;;;;;;;;;;;;;;;;;;6155906;23;19904;-73
2022/01/14 03:28:17;;;;;;;;;;;;;;;;;;6156401;23;20238;-73
2022/01/14 03:30:43;;;;;;;;;;;;;;;;;;6156808;23;19915;-74
2022/01/14 03:33:09;;;;;;;;;;;;;;;;;;6156063;23;19908;-72
2022/01/14 03:35:35;;;;;;;;;;;;;;;;;;6156911;23;19939;-73
2022/01/14 03:38:01;;;;;;;;;;;;;;;;;;6155769;23;20235;-75
2022/01/14 03:40:27;;;;;;;;;;;;;;;;;;6156447;23;20330;-72
2022/01/14 03:42:53;;;;;;;;;;;;;;;;;;6156141;23;19912;-74
2022/01/14 03:45:19;;;;;;;;;;;;;;;;;;6130254;23;19911;-75
2022/01/14 03:47:45;;;;;;;;;;;;;;;;;;6129833;23;20254;-75
2022/01/14 03:50:11;;;;;;;;;;;;;;;;;;6155953;23;19904;-75
2022/01/14 03:52:36;;;;;;;;;;;;;;;;;;6156138;23;19996;-73
2022/01/14 03:55:02;;;;;;;;;;;;;;;;;;6155325;23;19996;-75
2022/01/14 03:57:28;;;;;;;;;;;;;;;;;;6156202;23;20390;-75
2022/01/14 03:59:54;;;;;;;;;;;;;;;;;;6155909;23;19983;-75
2022/01/14 04:02:20;;;;;;;;;;;;;;;;;;6155820;23;20024;-73
2022/01/14 04:04:46;;;;;;;;;;;;;;;;;;6155722;23;20319;-72
2022/01/14 04:07:12;;;;;;;;;;;;;;;;;;6153932;23;19927;-75
2022/01/14 04:09:38;;;;;;;;;;;;;;;;;;6155400;23;19932;-75
2022/01/14 04:12:04;;;;;;;;;;;;;;;;;;6155963;23;19955;-73
2022/01/14 04:16:57;;;;;;;;;;;;;;;;;;6155812;23;19904;-73
2022/01/14 04:19:23;;;;;;;;;;;;;;;;;;6156104;23;19930;-74
2022/01/14 04:21:48;;;;;;;;;;;;;;;;;;6129588;23;20334;-73
2022/01/14 04:24:14;;;;;;;;;;;;;;;;;;6155892;23;19911;-73
2022/01/14 04:26:40;;;;;;;;;;;;;;;;;;6156172;23;20270;-73
2022/01/14 04:29:06;;;;;;;;;;;;;;;;;;6155309;23;19958;-75
2022/01/14 04:31:32;;;;;;;;;;;;;;;;;;6156212;23;19904;-73
2022/01/14 04:33:58;;;;;;;;;;;;;;;;;;6129308;23;19905;-72
2022/01/14 04:36:24;;;;;;;;;;;;;;;;;;6155383;23;19915;-73
2022/01/14 04:38:50;;;;;;;;;;;;;;;;;;6129700;23;20220;-73
2022/01/14 04:41:15;;;;;;;;;;;;;;;;;;6155522;23;19905;-73
2022/01/14 04:43:41;;;;;;;;;;;;;;;;;;6155841;23;19956;-73
2022/01/14 04:48:33;;;;;;;;;;;;;;;;;;6156525;23;19946;-73
2022/01/14 04:50:59;;;;;;;;;;;;;;;;;;6155344;23;19909;-73
2022/01/14 04:53:25;;;;;;;;;;;;;;;;;;6128874;23;19905;-73
2022/01/14 04:55:51;;;;;;;;;;;;;;;;;;6129219;23;20255;-73
2022/01/14 04:58:17;;;;;;;;;;;;;;;;;;6155098;23;19904;-73
2022/01/14 05:00:43;;;;;;;;;;;;;;;;;;6155136;23;19928;-73
2022/01/14 05:03:09;;;;;;;;;;;;;;;;;;6154817;23;20247;-73
2022/01/14 05:05:38;;;;;;;;;;;;;;;;;;6154351;23;19909;-73
2022/01/14 05:08:11;;;;;;;;;;;;;;;;;;6155420;23;19909;-73
2022/01/14 05:10:49;;;;;;;;;;;;;;;;;;6155062;23;19956;-73
2022/01/14 05:13:15;;;;;;;;;;;;;;;;;;6155403;23;19988;-75
2022/01/14 05:15:41;;;;;;;;;;;;;;;;;;6155151;23;19962;-73
2022/01/14 05:18:07;;;;;;;;;;;;;;;;;;6154723;23;19939;-73
2022/01/14 05:20:33;;;;;;;;;;;;;;;;;;6154963;23;20346;-73
2022/01/14 05:22:58;;;;;;;;;;;;;;;;;;6128856;23;19911;-73
2022/01/14 05:25:24;;;;;;;;;;;;;;;;;;6155043;23;19904;-72
2022/01/14 05:27:50;;;;;;;;;;;;;;;;;;6155359;23;19915;-73
2022/01/14 05:30:16;;;;;;;;;;;;;;;;;;6127748;23;20397;-73
2022/01/14 05:32:45;;;;;;;;;;;;;;;;;;6154738;23;19963;-73
2022/01/14 05:35:11;;;;;;;;;;;;;;;;;;6153904;23;19912;-73
2022/01/14 05:37:37;;;;;;;;;;;;;;;;;;6155697;23;19943;-73
2022/01/14 05:40:03;;;;;;;;;;;;;;;;;;6154375;23;19905;-73
2022/01/14 05:42:33;;;;;;;;;;;;;;;;;;6154438;23;19914;-73
2022/01/14 05:44:59;;;;;;;;;;;;;;;;;;6155322;23;19904;-73
2022/01/14 05:47:25;;;;;;;;;;;;;;;;;;6154508;23;20354;-73
2022/01/14 05:49:51;;;;;;;;;;;;;;;;;;6154557;23;19908;-73
2022/01/14 05:52:17;;;;;;;;;;;;;;;;;;6154815;23;19912;-73
2022/01/14 05:54:43;;;;;;;;;;;;;;;;;;6155281;23;19920;-73
2022/01/14 05:57:09;;;;;;;;;;;;;;;;;;6154606;23;20316;-73
2022/01/14 05:59:35;;;;;;;;;;;;;;;;;;6154537;23;19911;-73
2022/01/14 06:02:02;;;;;;;;;;;;;;;;;;6154714;23;19905;-73
2022/01/14 06:04:28;;;;;;;;;;;;;;;;;;6154702;23;19912;-75
2022/01/14 06:06:54;;;;;;;;;;;;;;;;;;6154759;23;19916;-72
2022/01/14 06:09:19;;;;;;;;;;;;;;;;;;6154222;23;19916;-73
2022/01/14 06:11:45;;;;;;;;;;;;;;;;;;6154795;23;19912;-73
2022/01/14 06:14:11;;;;;;;;;;;;;;;;;;6155342;23;19905;-72
2022/01/14 06:16:37;;;;;;;;;;;;;;;;;;6153844;23;19912;-75
2022/01/14 06:19:03;;;;;;;;;;;;;;;;;;6154522;23;19911;-74
2022/01/14 06:21:29;;;;;;;;;;;;;;;;;;6162135;23;19936;-74
2022/01/14 06:23:55;;;;;;;;;;;;;;;;;;6154832;23;19913;-75
2022/01/14 06:26:21;;;;;;;;;;;;;;;;;;6155574;23;19905;-75
2022/01/14 11:42:59;;;;;;;;;;;;;;;;;;6200977;23;19948;-76
2022/01/14 11:45:26;;;;;;;;;;;;;;;;;;6215296;23;20377;-75
2022/01/14 11:47:58;;;;;;;;;;;;;;;;;;6215595;23;19900;-75
2022/01/14 11:50:24;;;;;;;;;;;;;;;;;;6215857;23;20245;-75
2022/01/14 11:52:50;;;;;;;;;;;;;;;;;;6215879;23;19900;-75
2022/01/14 11:55:16;;;;;;;;;;;;;;;;;;6215128;23;19958;-75
2022/01/14 11:57:44;;;;;;;;;;;;;;;;;;6215760;23;20384;-75
2022/01/14 12:00:10;;;;;;;;;;;;;;;;;;6216154;23;19910;-75
2022/01/14 12:02:36;;;;;;;;;;;;;;;;;;6215808;23;19942;-75
2022/01/14 12:05:01;;;;;;;;;;;;;;;;;;6189162;23;20365;-75
2022/01/14 12:07:27;;;;;;;;;;;;;;;;;;6215886;23;20333;-75
2022/01/14 12:09:53;;;;;;;;;;;;;;;;;;6214634;23;20348;-75
2022/01/14 12:12:19;;;;;;;;;;;;;;;;;;6215459;23;19910;-75
2022/01/14 12:14:55;;;;;;;;;;;;;;;;;;6215685;23;19904;-75
2022/01/14 12:17:21;;;;;;;;;;;;;;;;;;6215941;23;19908;-75
2022/01/14 12:19:47;;;;;;;;;;;;;;;;;;6215356;23;19900;-75
2022/01/14 12:22:14;;;;;;;;;;;;;;;;;;6215844;23;19904;-75
2022/01/14 12:24:40;;;;;;;;;;;;;;;;;;6215028;23;19982;-75
2022/01/14 12:27:07;;;;;;;;;;;;;;;;;;6215103;23;19927;-75
2022/01/14 12:29:33;;;;;;;;;;;;;;;;;;6216264;23;19903;-75
2022/01/14 12:31:59;;;;;;;;;;;;;;;;;;6215241;23;19900;-75
2022/01/14 12:34:25;;;;;;;;;;;;;;;;;;6214957;23;19974;-75
2022/01/14 12:36:50;;;;;;;;;;;;;;;;;;6215624;23;19919;-75
2022/01/14 12:39:16;;;;;;;;;;;;;;;;;;6215957;23;19903;-75
2022/01/14 12:41:42;;;;;;;;;;;;;;;;;;6215000;23;20242;-75
2022/01/14 12:44:08;;;;;;;;;;;;;;;;;;6215336;23;19911;-75
2022/01/14 12:46:51;;;;;;;;;;;;;;;;;;6215144;23;19904;-75
2022/01/14 12:49:17;;;;;;;;;;;;;;;;;;6214966;23;19910;-75
2022/01/14 12:51:43;;;;;;;;;;;;;;;;;;6189248;23;20241;-75
2022/01/14 12:54:09;;;;;;;;;;;;;;;;;;6214990;23;19953;-75
2022/01/14 12:56:35;;;;;;;;;;;;;;;;;;6215192;23;19908;-75
2022/01/14 12:59:01;;;;;;;;;;;;;;;;;;6215066;23;19907;-75
2022/01/14 13:01:27;;;;;;;;;;;;;;;;;;6215464;23;19919;-75
2022/01/14 13:03:53;;;;;;;;;;;;;;;;;;6215133;23;19939;-75
2022/01/14 13:06:19;;;;;;;;;;;;;;;;;;6215401;23;20283;-75
2022/01/14 13:08:44;;;;;;;;;;;;;;;;;;6215441;23;19908;-74
2022/01/14 13:11:11;;;;;;;;;;;;;;;;;;6214712;23;19987;-75
2022/01/14 13:13:37;;;;;;;;;;;;;;;;;;6215538;23;19911;-74
2022/01/14 13:16:05;;;;;;;;;;;;;;;;;;6188245;23;19908;-74
2022/01/14 13:18:37;;;;;;;;;;;;;;;;;;6215173;23;19908;-74
2022/01/14 13:21:03;;;;;;;;;;;;;;;;;;6215248;23;19970;-74
2022/01/14 13:23:29;;;;;;;;;;;;;;;;;;6188385;23;19904;-74
2022/01/14 14:22:33;;;;;;;;;;;;;;;;;;6208871;23;19967;-73
2022/01/14 14:25:02;;;;;;;;;;;;;;;;;;6214616;23;19911;-73
2022/01/14 14:27:28;;;;;;;;;;;;;;;;;;6213684;23;19909;-72
2022/01/14 14:29:54;;;;;;;;;;;;;;;;;;6215100;23;19950;-72
2022/01/14 14:32:21;;;;;;;;;;;;;;;;;;6187815;23;20199;-73
2022/01/14 14:34:47;;;;;;;;;;;;;;;;;;6215063;23;19987;-74
2022/01/14 14:37:13;;;;;;;;;;;;;;;;;;6214662;23;19994;-74
2022/01/14 14:39:39;;;;;;;;;;;;;;;;;;6214960;23;19991;-74
2022/01/14 14:42:05;;;;;;;;;;;;;;;;;;6214530;23;19915;-74
2022/01/14 14:44:31;;;;;;;;;;;;;;;;;;6215036;23;19904;-74
2022/01/14 14:46:57;;;;;;;;;;;;;;;;;;6214873;23;19911;-74
2022/01/14 14:49:23;;;;;;;;;;;;;;;;;;6216516;23;19908;-74
2022/01/14 14:51:48;;;;;;;;;;;;;;;;;;6216195;23;20251;-74
2022/01/14 14:54:14;;;;;;;;;;;;;;;;;;6216615;23;19904;-74
2022/01/14 14:56:40;;;;;;;;;;;;;;;;;;6216521;23;19912;-74
2022/01/14 14:59:06;;;;;;;;;;;;;;;;;;6216521;23;19910;-74
2022/01/14 15:01:32;;;;;;;;;;;;;;;;;;6216007;23;19904;-74
2022/01/14 15:03:58;;;;;;;;;;;;;;;;;;6216457;23;19904;-74
2022/01/14 15:06:28;;;;;;;;;;;;;;;;;;6216769;23;19926;-74
2022/01/14 15:08:54;;;;;;;;;;;;;;;;;;6216242;23;19904;-74
2022/01/14 15:11:19;;;;;;;;;;;;;;;;;;6215779;23;20218;-75
2022/01/14 15:13:45;;;;;;;;;;;;;;;;;;6216068;23;19904;-74
2022/01/14 15:18:40;;;;;;;;;;;;;;;;;;6216332;23;20265;-74
2022/01/14 15:21:06;;;;;;;;;;;;;;;;;;6215580;23;19916;-74
2022/01/14 15:23:32;;;;;;;;;;;;;;;;;;6216709;23;19911;-74
2022/01/14 15:25:58;;;;;;;;;;;;;;;;;;6216264;23;19911;-74
2022/01/14 15:28:24;;;;;;;;;;;;;;;;;;6216039;23;19904;-75
2022/01/14 15:30:50;;;;;;;;;;;;;;;;;;6216777;23;19911;-74
2022/01/14 15:33:15;;;;;;;;;;;;;;;;;;6216134;23;19904;-74
2022/01/14 15:35:41;;;;;;;;;;;;;;;;;;6215826;23;20625;-74
2022/01/14 15:38:07;;;;;;;;;;;;;;;;;;6216306;23;19904;-74
2022/01/14 15:40:36;;;;;;;;;;;;;;;;;;6216080;23;19904;-74
2022/01/14 15:43:02;;;;;;;;;;;;;;;;;;6216209;23;19911;-74
2022/01/14 15:45:28;;;;;;;;;;;;;;;;;;6215707;23;19904;-75
2022/01/14 15:47:54;;;;;;;;;;;;;;;;;;6216598;23;20234;-75
2022/01/14 15:50:20;;;;;;;;;;;;;;;;;;6215999;23;19908;-75
2022/01/14 15:52:46;;;;;;;;;;;;;;;;;;6215882;23;19925;-75
2022/01/14 15:55:12;;;;;;;;;;;;;;;;;;6216328;23;20285;-75
2022/01/14 15:57:37;;;;;;;;;;;;;;;;;;6188503;23;19904;-75
2022/01/14 16:00:03;;;;;;;;;;;;;;;;;;6216229;23;19908;-72
2022/01/14 16:02:29;;;;;;;;;;;;;;;;;;6215845;23;19956;-75
2022/01/14 16:04:55;;;;;;;;;;;;;;;;;;6215949;23;19908;-72
2022/01/14 16:07:22;;;;;;;;;;;;;;;;;;6216262;23;20292;-75
2022/01/14 16:09:59;;;;;;;;;;;;;;;;;;6215455;23;19950;-74
2022/01/14 16:12:26;;;;;;;;;;;;;;;;;;6215006;23;19911;-74
2022/01/14 16:14:51;;;;;;;;;;;;;;;;;;6215555;23;19904;-74
2022/01/14 16:17:17;;;;;;;;;;;;;;;;;;6216361;23;20314;-74
2022/01/14 16:19:43;;;;;;;;;;;;;;;;;;6215911;23;19956;-74
2022/01/14 16:22:09;;;;;;;;;;;;;;;;;;6215413;23;19974;-74
2022/01/14 16:24:36;;;;;;;;;;;;;;;;;;6215647;23;19904;-74
2022/01/14 16:27:02;;;;;;;;;;;;;;;;;;6215590;23;19904;-74
2022/01/14 16:29:28;;;;;;;;;;;;;;;;;;6215336;23;19904;-74
2022/01/14 16:31:54;;;;;;;;;;;;;;;;;;6215542;23;20317;-73
2022/01/14 16:34:20;;;;;;;;;;;;;;;;;;6215640;23;20026;-74
2022/01/14 16:36:46;;;;;;;;;;;;;;;;;;6215711;23;20033;-73
2022/01/14 16:39:12;;;;;;;;;;;;;;;;;;6216246;23;19904;-74
2022/01/14 16:41:37;;;;;;;;;;;;;;;;;;6215254;23;20269;-72
2022/01/14 16:44:03;;;;;;;;;;;;;;;;;;6214941;23;19904;-74
2022/01/14 16:46:29;;;;;;;;;;;;;;;;;;6215320;23;19945;-74
2022/01/14 16:48:55;;;;;;;;;;;;;;;;;;6215087;23;20260;-75
2022/01/14 16:51:21;;;;;;;;;;;;;;;;;;6215257;23;19912;-74
2022/01/14 16:53:47;;;;;;;;;;;;;;;;;;6215308;23;20234;-74
2022/01/14 16:56:13;;;;;;;;;;;;;;;;;;6214978;23;19907;-74
2022/01/14 16:58:39;;;;;;;;;;;;;;;;;;6214278;23;19907;-74
2022/01/14 17:01:05;;;;;;;;;;;;;;;;;;6215173;23;19970;-74
2022/01/14 17:03:31;;;;;;;;;;;;;;;;;;6215106;23;20260;-74
2022/01/14 17:05:57;;;;;;;;;;;;;;;;;;6188431;23;20242;-73
2022/01/14 17:08:23;;;;;;;;;;;;;;;;;;6215210;23;19911;-74
2022/01/14 17:10:49;;;;;;;;;;;;;;;;;;6215103;23;19904;-74
2022/01/14 17:13:18;;;;;;;;;;;;;;;;;;6215335;23;19904;-74
2022/01/14 17:15:44;;;;;;;;;;;;;;;;;;6214917;23;19915;-74
2022/01/14 17:18:10;;;;;;;;;;;;;;;;;;6215657;23;19904;-74
2022/01/14 17:20:36;;;;;;;;;;;;;;;;;;6214346;23;20364;-74
2022/01/14 17:23:01;;;;;;;;;;;;;;;;;;6214931;23;19904;-74
2022/01/14 17:25:27;;;;;;;;;;;;;;;;;;6215671;23;20376;-74
2022/01/14 17:27:53;;;;;;;;;;;;;;;;;;6214916;23;19900;-74
2022/01/14 17:30:19;;;;;;;;;;;;;;;;;;6215070;23;19904;-74
2022/01/14 17:32:45;;;;;;;;;;;;;;;;;;6214954;23;19900;-74
2022/01/14 17:35:11;;;;;;;;;;;;;;;;;;6214348;23;19999;-74
2022/01/14 17:37:37;;;;;;;;;;;;;;;;;;6214916;23;19904;-73
2022/01/14 17:40:03;;;;;;;;;;;;;;;;;;6214955;23;19908;-74
2022/01/14 17:42:30;;;;;;;;;;;;;;;;;;6187641;23;20253;-74
2022/01/14 17:44:57;;;;;;;;;;;;;;;;;;6214651;23;20222;-74
2022/01/14 17:47:23;;;;;;;;;;;;;;;;;;6214498;23;19912;-75
2022/01/14 17:49:49;;;;;;;;;;;;;;;;;;6187156;23;19911;-74
2022/01/14 17:52:15;;;;;;;;;;;;;;;;;;6214796;23;19910;-74
2022/01/14 17:54:41;;;;;;;;;;;;;;;;;;6214739;23;19919;-74
2022/01/14 17:57:07;;;;;;;;;;;;;;;;;;6215287;23;20333;-74
2022/01/14 17:59:34;;;;;;;;;;;;;;;;;;6185834;23;19904;-74
2022/01/14 18:02:00;;;;;;;;;;;;;;;;;;6211057;23;19912;-74
2022/01/14 18:04:26;;;;;;;;;;;;;;;;;;6209914;23;19911;-75
2022/01/14 18:06:52;;;;;;;;;;;;;;;;;;6212186;23;19915;-75
2022/01/14 18:09:20;;;;;;;;;;;;;;;;;;6213348;23;19904;-72
2022/01/14 18:11:55;;;;;;;;;;;;;;;;;;6213147;23;19987;-72
2022/01/14 18:14:22;;;;;;;;;;;;;;;;;;6213425;23;19904;-74
2022/01/14 18:16:49;;;;;;;;;;;;;;;;;;6214197;23;19912;-72
2022/01/14 18:19:15;;;;;;;;;;;;;;;;;;6186725;23;20353;-72
2022/01/14 18:21:41;;;;;;;;;;;;;;;;;;6207343;23;19975;-73
2022/01/14 18:24:07;;;;;;;;;;;;;;;;;;6186189;23;19907;-74
2022/01/14 18:26:35;;;;;;;;;;;;;;;;;;6215250;23;19911;-73
2022/01/14 18:29:01;;;;;;;;;;;;;;;;;;6215515;23;19908;-73
2022/01/14 18:31:27;;;;;;;;;;;;;;;;;;6188637;23;19961;-73
2022/01/14 18:33:53;;;;;;;;;;;;;;;;;;6215117;23;19904;-73
2022/01/14 18:36:19;;;;;;;;;;;;;;;;;;6213413;23;19955;-73
2022/01/14 18:38:45;;;;;;;;;;;;;;;;;;6186132;23;19907;-73
2022/01/14 18:41:11;;;;;;;;;;;;;;;;;;6216120;23;19914;-73
2022/01/14 18:43:38;;;;;;;;;;;;;;;;;;6215498;23;19982;-73
2022/01/14 18:46:06;;;;;;;;;;;;;;;;;;6216148;23;19904;-73
2022/01/14 18:48:32;;;;;;;;;;;;;;;;;;6215380;23;19904;-73
2022/01/14 18:50:58;;;;;;;;;;;;;;;;;;6215899;23;19904;-73
2022/01/14 18:53:24;;;;;;;;;;;;;;;;;;6215041;23;19972;-73
2022/01/14 18:55:50;;;;;;;;;;;;;;;;;;6215278;23;20261;-73
2022/01/14 18:58:16;;;;;;;;;;;;;;;;;;6214750;23;19908;-74
2022/01/14 19:00:42;;;;;;;;;;;;;;;;;;6187674;23;19904;-73
2022/01/14 19:03:08;;;;;;;;;;;;;;;;;;6214354;23;19955;-74
2022/01/14 19:05:34;;;;;;;;;;;;;;;;;;6214752;23;19912;-73
2022/01/14 19:08:00;;;;;;;;;;;;;;;;;;6215187;23;19908;-72
2022/01/14 19:10:27;;;;;;;;;;;;;;;;;;6215662;23;19915;-73
2022/01/14 19:12:53;;;;;;;;;;;;;;;;;;6216065;23;19970;-72
2022/01/14 19:15:19;;;;;;;;;;;;;;;;;;6215064;23;19938;-73
2022/01/14 19:17:45;;;;;;;;;;;;;;;;;;6215633;23;19908;-73
2022/01/14 19:20:11;;;;;;;;;;;;;;;;;;6215623;23;20341;-73
2022/01/14 19:22:37;;;;;;;;;;;;;;;;;;6214136;23;19920;-74
2022/01/14 19:25:03;;;;;;;;;;;;;;;;;;6215847;23;19904;-74
2022/01/14 19:27:29;;;;;;;;;;;;;;;;;;6215648;23;19936;-75
2022/01/14 19:29:55;;;;;;;;;;;;;;;;;;6215499;23;19923;-74
2022/01/14 19:32:21;;;;;;;;;;;;;;;;;;6215671;23;19957;-75
2022/01/14 19:34:47;;;;;;;;;;;;;;;;;;6188132;23;20392;-75
2022/01/14 19:37:13;;;;;;;;;;;;;;;;;;6215421;23;19908;-74
2022/01/14 19:39:40;;;;;;;;;;;;;;;;;;6188811;23;19907;-75
2022/01/14 19:42:06;;;;;;;;;;;;;;;;;;6216456;23;20436;-75
2022/01/14 19:44:32;;;;;;;;;;;;;;;;;;6216238;23;19935;-75
2022/01/14 19:46:58;;;;;;;;;;;;;;;;;;6215856;23;19904;-76
2022/01/14 19:49:24;;;;;;;;;;;;;;;;;;6215114;23;19954;-75
2022/01/14 19:51:52;;;;;;;;;;;;;;;;;;6215579;23;20318;-74
2022/01/14 19:54:18;;;;;;;;;;;;;;;;;;6215933;23;20318;-76
2022/01/14 19:56:44;;;;;;;;;;;;;;;;;;6216192;23;19908;-75
2022/01/14 19:59:09;;;;;;;;;;;;;;;;;;6215767;23;19915;-75
2022/01/14 20:01:35;;;;;;;;;;;;;;;;;;6188859;23;19904;-75
2022/01/14 20:04:01;;;;;;;;;;;;;;;;;;6214602;23;19912;-74
2022/01/14 20:06:27;;;;;;;;;;;;;;;;;;6215311;23;20230;-74
2022/01/14 20:08:55;;;;;;;;;;;;;;;;;;6213796;23;20457;-74
2022/01/14 20:11:21;;;;;;;;;;;;;;;;;;6215233;23;19919;-74
2022/01/14 20:13:48;;;;;;;;;;;;;;;;;;6214660;23;20310;-74
2022/01/14 20:16:15;;;;;;;;;;;;;;;;;;6214656;23;19959;-74
2022/01/14 20:18:41;;;;;;;;;;;;;;;;;;6214256;23;19919;-74
2022/01/14 20:21:07;;;;;;;;;;;;;;;;;;6214946;23;19947;-74
2022/01/14 20:23:33;;;;;;;;;;;;;;;;;;6214962;23;19908;-74
2022/01/14 20:25:59;;;;;;;;;;;;;;;;;;6212647;23;19904;-76
2022/01/14 20:28:25;;;;;;;;;;;;;;;;;;6215082;23;19904;-74
2022/01/14 20:30:51;;;;;;;;;;;;;;;;;;6215583;23;19907;-74
2022/01/14 20:33:17;;;;;;;;;;;;;;;;;;6214938;23;19904;-74
2022/01/14 20:35:43;;;;;;;;;;;;;;;;;;6215412;23;19957;-74
2022/01/14 20:38:09;;;;;;;;;;;;;;;;;;6214406;23;19966;-74
2022/01/14 20:40:35;;;;;;;;;;;;;;;;;;6215190;23;20376;-74
2022/01/14 20:43:02;;;;;;;;;;;;;;;;;;6188677;23;19958;-74
2022/01/14 20:45:28;;;;;;;;;;;;;;;;;;6214395;23;19907;-73
2022/01/14 20:47:54;;;;;;;;;;;;;;;;;;6214934;23;19904;-73
2022/01/14 20:50:20;;;;;;;;;;;;;;;;;;6214715;23;20501;-73
2022/01/14 20:52:46;;;;;;;;;;;;;;;;;;6215596;23;19904;-74
2022/01/14 20:55:12;;;;;;;;;;;;;;;;;;6214413;23;19915;-73
2022/01/14 20:57:38;;;;;;;;;;;;;;;;;;6214472;23;19904;-75
2022/01/14 21:00:03;;;;;;;;;;;;;;;;;;6214858;23;20302;-74
2022/01/14 21:02:29;;;;;;;;;;;;;;;;;;6214625;23;19958;-75
2022/01/14 21:04:56;;;;;;;;;;;;;;;;;;6215362;23;19900;-74
2022/01/14 21:07:22;;;;;;;;;;;;;;;;;;6215655;23;19908;-74
2022/01/14 21:09:48;;;;;;;;;;;;;;;;;;6214819;23;19903;-74
2022/01/14 21:12:13;;;;;;;;;;;;;;;;;;6215275;23;19922;-74
2022/01/14 21:14:39;;;;;;;;;;;;;;;;;;6215207;23;19910;-74
2022/01/14 21:17:05;;;;;;;;;;;;;;;;;;6215128;23;19960;-74
2022/01/14 21:19:36;;;;;;;;;;;;;;;;;;6215368;23;19904;-74
2022/01/14 21:22:02;;;;;;;;;;;;;;;;;;6215126;23;20000;-75
2022/01/14 21:24:28;;;;;;;;;;;;;;;;;;6215388;23;19912;-74
2022/01/14 21:26:54;;;;;;;;;;;;;;;;;;6215219;23;20324;-74
2022/01/14 21:29:20;;;;;;;;;;;;;;;;;;6215168;23;19978;-74
2022/01/14 21:31:46;;;;;;;;;;;;;;;;;;6214389;23;19998;-74
2022/01/14 21:34:12;;;;;;;;;;;;;;;;;;6214819;23;19982;-74
2022/01/14 21:36:38;;;;;;;;;;;;;;;;;;6215072;23;19908;-74
2022/01/14 21:39:03;;;;;;;;;;;;;;;;;;6188521;23;19943;-74
2022/01/14 21:41:29;;;;;;;;;;;;;;;;;;6215604;23;19904;-75
2022/01/14 21:43:55;;;;;;;;;;;;;;;;;;6214841;23;19911;-76
2022/01/14 21:46:22;;;;;;;;;;;;;;;;;;6214751;23;19915;-76
2022/01/14 21:48:48;;;;;;;;;;;;;;;;;;6215392;23;19943;-73
2022/01/14 21:51:13;;;;;;;;;;;;;;;;;;6214702;23;19904;-75
2022/01/14 21:53:39;;;;;;;;;;;;;;;;;;6215582;23;20349;-75
2022/01/14 21:56:07;;;;;;;;;;;;;;;;;;6188166;23;19915;-75
2022/01/14 21:58:33;;;;;;;;;;;;;;;;;;6214622;23;19904;-75
2022/01/14 22:00:59;;;;;;;;;;;;;;;;;;6214794;23;20507;-75
2022/01/14 22:03:24;;;;;;;;;;;;;;;;;;6214895;23;20349;-75
2022/01/14 22:05:50;;;;;;;;;;;;;;;;;;6215333;23;19991;-75
2022/01/14 22:08:19;;;;;;;;;;;;;;;;;;6214994;23;19971;-75
2022/01/14 22:10:45;;;;;;;;;;;;;;;;;;6214745;23;20277;-75
2022/01/14 22:13:12;;;;;;;;;;;;;;;;;;6214968;23;19923;-75
2022/01/14 22:15:40;;;;;;;;;;;;;;;;;;6187922;23;20326;-75
2022/01/14 22:18:06;;;;;;;;;;;;;;;;;;6214905;23;19904;-75
2022/01/14 22:20:31;;;;;;;;;;;;;;;;;;6187797;23;19994;-75
2022/01/14 22:22:57;;;;;;;;;;;;;;;;;;6215026;23;19912;-75
2022/01/14 22:25:23;;;;;;;;;;;;;;;;;;6215191;23;19939;-75
2022/01/14 22:27:49;;;;;;;;;;;;;;;;;;6215026;23;19927;-75
2022/01/14 22:30:15;;;;;;;;;;;;;;;;;;6213998;23;20330;-75
2022/01/14 22:32:41;;;;;;;;;;;;;;;;;;6215266;23;19911;-75
2022/01/14 22:35:07;;;;;;;;;;;;;;;;;;6214074;23;19927;-75
2022/01/14 22:37:33;;;;;;;;;;;;;;;;;;6214706;23;19908;-76
2022/01/14 22:39:59;;;;;;;;;;;;;;;;;;6215173;23;20396;-73
2022/01/14 22:42:26;;;;;;;;;;;;;;;;;;6188060;23;19980;-75
2022/01/14 22:44:52;;;;;;;;;;;;;;;;;;6214609;23;19904;-75
2022/01/14 22:47:18;;;;;;;;;;;;;;;;;;6214787;23;19954;-75
2022/01/14 22:49:44;;;;;;;;;;;;;;;;;;6214656;23;19904;-75
2022/01/14 22:52:10;;;;;;;;;;;;;;;;;;6214796;23;19910;-75
2022/01/14 22:54:36;;;;;;;;;;;;;;;;;;6214529;23;19910;-75
2022/01/14 22:57:02;;;;;;;;;;;;;;;;;;6214525;23;20225;-75
2022/01/14 22:59:28;;;;;;;;;;;;;;;;;;6215052;23;19983;-75
2022/01/14 23:01:53;;;;;;;;;;;;;;;;;;6214671;23;19983;-75
2022/01/14 23:04:19;;;;;;;;;;;;;;;;;;6214628;23;20353;-75
2022/01/14 23:06:45;;;;;;;;;;;;;;;;;;6214147;23;19911;-75
2022/01/14 23:09:11;;;;;;;;;;;;;;;;;;6216313;23;19908;-75
2022/01/14 23:11:37;;;;;;;;;;;;;;;;;;6216676;23;19954;-75
2022/01/14 23:14:03;;;;;;;;;;;;;;;;;;6216390;23;20265;-75
2022/01/14 23:16:29;;;;;;;;;;;;;;;;;;6216557;23;19908;-75
2022/01/14 23:18:55;;;;;;;;;;;;;;;;;;6216548;23;19904;-75